Time;durP1;ratioP1;P1;durP2;ratioP2;P2;SDS_P1;SDS_P2;PMS_P1;PMS_P2;Temp;Humidity;BMP_temperature;BMP_pressure;BME280_temperature;BME280_humidity;BME280_pressure;Samples;Min_cycle;Max_cycle;Signal;HPM_P1;HPM_P2
2022/03/03 00:00:15;;;;;;;75.97;30.63;;;;;;;21.16;12.90;98461.81;5082377;28;20500;-80
2022/03/03 00:02:42;;;;;;;85.13;29.95;;;;;;;21.40;12.68;98471.28;5080694;28;20032;-80
2022/03/03 00:05:10;;;;;;;72.80;27.48;;;;;;;21.60;12.54;98469.59;5076714;28;20085;-80
2022/03/03 00:07:36;;;;;;;69.88;26.52;;;;;;;21.72;12.52;98460.72;5076085;28;20115;-80
2022/03/03 00:10:04;;;;;;;68.60;27.20;;;;;;;21.44;12.53;98458.09;5079885;28;20075;-80
2022/03/03 00:12:30;;;;;;;70.25;27.40;;;;;;;21.34;12.50;98464.53;5079551;28;20087;-80
2022/03/03 00:14:56;;;;;;;70.35;25.77;;;;;;;21.62;12.86;98452.41;5081099;28;20063;-79
2022/03/03 00:17:22;;;;;;;67.40;25.02;;;;;;;21.15;13.13;98446.25;5083031;28;20070;-80
2022/03/03 00:19:48;;;;;;;56.83;22.02;;;;;;;21.21;13.15;98441.84;5081227;28;20067;-80
2022/03/03 00:22:15;;;;;;;62.22;22.80;;;;;;;21.27;12.77;98433.84;5078164;28;20090;-80
2022/03/03 00:24:42;;;;;;;59.22;22.55;;;;;;;21.54;12.65;98443.25;5075786;28;20409;-80
2022/03/03 00:27:09;;;;;;;53.38;21.17;;;;;;;21.42;12.99;98440.97;5077343;28;20039;-80
2022/03/03 00:29:35;;;;;;;59.05;23.45;;;;;;;21.63;12.81;98434.44;5080355;28;20113;-80
2022/03/03 00:32:01;;;;;;;52.72;20.50;;;;;;;21.74;12.37;98438.75;5083610;28;20043;-80
2022/03/03 00:34:27;;;;;;;56.15;21.08;;;;;;;21.95;12.18;98435.03;5062303;28;20054;-80
2022/03/03 00:36:53;;;;;;;62.13;24.35;;;;;;;22.14;12.32;98433.69;5078299;28;20042;-80
2022/03/03 00:39:19;;;;;;;65.65;25.15;;;;;;;21.46;12.97;98429.75;5076528;28;20925;-80
2022/03/03 00:41:45;;;;;;;49.80;20.40;;;;;;;21.26;13.16;98418.31;5073665;28;20735;-80
2022/03/03 00:44:12;;;;;;;52.15;19.55;;;;;;;21.49;12.83;98420.56;5080441;28;20048;-80
2022/03/03 00:46:38;;;;;;;50.60;20.20;;;;;;;21.61;12.70;98414.50;5080216;28;20024;-80
2022/03/03 00:49:05;;;;;;;53.75;19.88;;;;;;;21.66;12.55;98414.03;5063195;28;20059;-80
2022/03/03 00:51:31;;;;;;;47.40;18.75;;;;;;;21.66;12.55;98412.06;5082167;28;20036;-80
2022/03/03 00:53:58;;;;;;;55.75;20.38;;;;;;;21.90;12.42;98411.13;5073691;28;20062;-80
2022/03/03 00:56:24;;;;;;;52.17;21.35;;;;;;;21.99;12.73;98413.44;5078478;28;20036;-80
2022/03/03 00:58:51;;;;;;;55.25;22.20;;;;;;;21.84;12.75;98411.97;5078811;28;20032;-80
2022/03/03 01:01:17;;;;;;;57.92;23.00;;;;;;;21.98;12.65;98409.84;5079219;28;20149;-80
2022/03/03 01:03:43;;;;;;;60.50;24.38;;;;;;;21.88;12.82;98415.53;5078009;28;20037;-80
2022/03/03 01:06:11;;;;;;;51.47;22.33;;;;;;;21.61;13.19;98411.72;5079168;28;20039;-81
2022/03/03 01:08:37;;;;;;;55.78;20.27;;;;;;;21.81;12.93;98398.78;5075261;28;20037;-81
2022/03/03 01:11:05;;;;;;;64.85;22.95;;;;;;;21.98;12.58;98398.66;5061332;28;20032;-80
2022/03/03 01:13:31;;;;;;;58.22;23.15;;;;;;;22.31;12.55;98390.78;5080399;28;20477;-80
2022/03/03 01:15:58;;;;;;;56.20;21.95;;;;;;;22.43;12.55;98388.25;5080120;28;20036;-80
2022/03/03 01:18:24;;;;;;;56.78;20.52;;;;;;;22.52;12.34;98388.53;5079658;28;20036;-80
2022/03/03 01:20:51;;;;;;;59.95;24.48;;;;;;;22.53;12.54;98392.94;5081900;28;20440;-80
2022/03/03 01:23:17;;;;;;;55.53;24.60;;;;;;;21.98;12.86;98397.88;5075809;28;20470;-81
2022/03/03 01:25:43;;;;;;;53.75;21.13;;;;;;;21.75;13.01;98389.25;5079372;28;20044;-80
2022/03/03 01:28:09;;;;;;;61.15;22.95;;;;;;;22.02;12.92;98391.03;5090247;28;20111;-80
2022/03/03 01:30:35;;;;;;;54.28;23.55;;;;;;;22.28;12.82;98388.81;5081876;28;20118;-80
2022/03/03 01:33:02;;;;;;;59.88;22.00;;;;;;;22.13;13.07;98390.94;5082983;28;20035;-80
2022/03/03 01:35:28;;;;;;;58.17;22.75;;;;;;;21.94;13.21;98395.09;5084464;28;20029;-80
2022/03/03 01:37:54;;;;;;;60.20;23.80;;;;;;;21.91;12.89;98389.56;5082553;28;20036;-80
2022/03/03 01:40:22;;;;;;;58.90;23.98;;;;;;;22.07;12.93;98389.81;5081705;28;20493;-80
2022/03/03 01:42:50;;;;;;;54.92;22.20;;;;;;;22.20;12.66;98379.69;5082310;28;20559;-80
2022/03/03 01:45:16;;;;;;;59.25;24.55;;;;;;;22.32;12.53;98381.16;5081885;28;20032;-80
2022/03/03 01:47:42;;;;;;;55.63;23.60;;;;;;;22.10;13.14;98379.81;5084165;28;20107;-80
2022/03/03 01:50:09;;;;;;;56.03;22.33;;;;;;;21.40;13.49;98375.53;5066464;28;20032;-80
2022/03/03 01:52:35;;;;;;;52.03;20.50;;;;;;;21.64;13.34;98366.97;5080779;28;20500;-80
2022/03/03 01:55:01;;;;;;;60.42;23.90;;;;;;;22.01;12.87;98367.06;5081465;28;20038;-80
2022/03/03 01:57:28;;;;;;;56.60;21.35;;;;;;;22.27;12.54;98359.22;5084723;28;20377;-80
2022/03/03 01:59:54;;;;;;;53.53;21.95;;;;;;;22.32;12.85;98362.38;5078057;28;20035;-80
2022/03/03 02:02:21;;;;;;;55.35;22.02;;;;;;;22.17;12.61;98362.94;5081284;28;20046;-80
2022/03/03 02:04:48;;;;;;;53.50;22.83;;;;;;;22.03;12.60;98366.69;5081434;28;20063;-79
2022/03/03 02:07:14;;;;;;;58.72;22.02;;;;;;;21.88;12.76;98365.22;5078482;28;20033;-80
2022/03/03 02:09:41;;;;;;;51.60;20.83;;;;;;;22.08;12.87;98365.44;5065593;28;20516;-80
2022/03/03 02:12:08;;;;;;;49.92;19.05;;;;;;;22.35;12.56;98369.97;5064101;28;20417;-80
2022/03/03 02:14:46;;;;;;;55.88;24.23;;;;;;;22.33;13.08;98366.78;5081028;28;20033;-80
2022/03/03 02:17:13;;;;;;;53.28;22.95;;;;;;;21.69;13.53;98354.53;5077519;28;20473;-80
2022/03/03 02:19:40;;;;;;;48.72;18.98;;;;;;;21.28;13.94;98365.63;5073785;28;20551;-80
2022/03/03 02:22:08;;;;;;;52.78;20.05;;;;;;;21.51;13.40;98362.28;5084875;28;20035;-80
2022/03/03 02:24:37;;;;;;;46.83;20.05;;;;;;;21.94;13.18;98363.53;5080672;28;20044;-80
2022/03/03 02:27:04;;;;;;;54.90;21.80;;;;;;;21.97;13.12;98354.34;5081461;28;20493;-80
2022/03/03 02:29:31;;;;;;;56.05;21.92;;;;;;;22.38;12.92;98357.16;5071795;28;20033;-80
2022/03/03 02:31:58;;;;;;;49.15;22.42;;;;;;;22.52;12.88;98354.97;5059659;28;20076;-80
2022/03/03 02:34:24;;;;;;;54.15;23.50;;;;;;;22.25;13.29;98351.28;5080859;28;20197;-80
2022/03/03 02:36:51;;;;;;;61.53;24.70;;;;;;;21.99;13.34;98349.94;5081774;28;20044;-80
2022/03/03 02:39:17;;;;;;;60.40;24.15;;;;;;;22.12;13.14;98350.22;5079354;28;20153;-80
2022/03/03 02:41:43;;;;;;;59.60;23.23;;;;;;;22.26;13.07;98343.69;5078868;28;20378;-80
2022/03/03 02:44:10;;;;;;;55.97;23.55;;;;;;;22.44;12.70;98349.88;5064851;28;20450;-80
2022/03/03 02:46:36;;;;;;;59.35;24.15;;;;;;;22.38;12.88;98338.34;5062443;28;20069;-80
2022/03/03 02:49:02;;;;;;;59.17;26.20;;;;;;;22.36;12.81;98337.16;5063362;28;22204;-80
2022/03/03 02:51:28;;;;;;;72.45;29.02;;;;;;;22.29;12.76;98334.44;5079101;28;20170;-80
2022/03/03 02:53:54;;;;;;;72.72;27.35;;;;;;;22.23;12.91;98339.72;5081236;28;20439;-80
2022/03/03 02:56:20;;;;;;;70.05;28.75;;;;;;;22.10;12.91;98344.22;5082614;28;20028;-80
2022/03/03 02:58:47;;;;;;;67.72;27.98;;;;;;;21.74;13.05;98335.34;5081356;28;20040;-80
2022/03/03 03:01:13;;;;;;;62.15;25.75;;;;;;;21.77;13.08;98333.72;5080876;28;20040;-80
2022/03/03 03:03:39;;;;;;;59.88;23.83;;;;;;;21.98;12.96;98333.56;5079391;28;20031;-80
2022/03/03 03:06:06;;;;;;;65.38;27.20;;;;;;;22.25;12.80;98330.88;5079952;28;20027;-80
2022/03/03 03:08:33;;;;;;;60.15;24.45;;;;;;;21.73;13.51;98332.94;5082909;28;20063;-80
2022/03/03 03:10:59;;;;;;;63.90;24.10;;;;;;;21.61;13.58;98330.69;5079518;28;20032;-80
2022/03/03 03:13:25;;;;;;;55.90;23.95;;;;;;;21.73;13.46;98324.56;5080228;28;20037;-80
2022/03/03 03:15:51;;;;;;;62.40;26.42;;;;;;;22.02;13.34;98323.94;5079256;28;20059;-80
2022/03/03 03:18:20;;;;;;;69.22;28.45;;;;;;;22.08;13.25;98327.06;5078566;28;20051;-80
2022/03/03 03:20:49;;;;;;;66.38;27.38;;;;;;;22.15;13.20;98320.63;5078505;28;20102;-80
2022/03/03 03:23:17;;;;;;;63.15;26.17;;;;;;;22.07;13.21;98314.31;5083002;28;20447;-80
2022/03/03 03:25:43;;;;;;;55.35;23.40;;;;;;;21.76;13.67;98312.56;5077446;28;20039;-80
2022/03/03 03:28:14;;;;;;;75.78;31.40;;;;;;;21.81;13.18;98315.72;5065855;28;20134;-80
2022/03/03 03:30:41;;;;;;;59.15;23.05;;;;;;;21.47;13.21;98322.41;5079521;28;20040;-80
2022/03/03 03:33:08;;;;;;;61.63;24.77;;;;;;;21.46;13.30;98324.41;5080526;28;20032;-80
2022/03/03 03:35:34;;;;;;;70.20;26.90;;;;;;;21.61;13.24;98325.09;5076978;28;20074;-80
2022/03/03 03:38:01;;;;;;;65.57;26.02;;;;;;;21.72;13.09;98325.78;5077279;28;20025;-80
2022/03/03 03:40:28;;;;;;;58.13;25.35;;;;;;;21.81;12.99;98323.31;5081270;28;20027;-80
2022/03/03 03:42:54;;;;;;;58.05;24.30;;;;;;;21.98;12.91;98319.59;5079883;28;20093;-80
2022/03/03 03:45:20;;;;;;;62.08;25.77;;;;;;;22.13;12.84;98317.44;5083828;28;20078;-80
2022/03/03 03:47:46;;;;;;;59.08;23.83;;;;;;;22.36;12.70;98325.97;5080950;28;20097;-80
2022/03/03 03:50:13;;;;;;;59.28;23.45;;;;;;;22.20;12.67;98323.75;5080630;28;20503;-80
2022/03/03 03:52:41;;;;;;;61.55;23.52;;;;;;;21.96;12.81;98325.56;5082522;28;20032;-80
2022/03/03 03:55:09;;;;;;;57.38;22.95;;;;;;;21.85;12.95;98324.91;5080976;28;20115;-80
2022/03/03 03:57:35;;;;;;;55.95;23.48;;;;;;;22.07;12.91;98327.50;5062922;28;20020;-80
2022/03/03 04:00:05;;;;;;;63.25;24.90;;;;;;;22.05;12.85;98332.72;5081281;28;20024;-80
2022/03/03 04:02:31;;;;;;;50.00;21.50;;;;;;;22.12;12.82;98322.25;5081906;28;20046;-80
2022/03/03 04:04:57;;;;;;;51.88;22.27;;;;;;;22.11;12.89;98323.44;5079411;28;20077;-80
2022/03/03 04:07:23;;;;;;;60.25;23.63;;;;;;;22.33;12.64;98330.41;5080293;28;20670;-80
2022/03/03 04:09:49;;;;;;;55.55;22.48;;;;;;;22.42;12.77;98325.13;5081024;28;20107;-80
2022/03/03 04:12:15;;;;;;;60.33;23.52;;;;;;;22.40;12.64;98323.94;5080171;28;20059;-80
2022/03/03 04:14:41;;;;;;;58.95;23.13;;;;;;;22.42;12.49;98319.53;5080444;28;20135;-80
2022/03/03 04:17:07;;;;;;;65.10;23.40;;;;;;;22.59;12.74;98318.50;5078320;28;20032;-80
2022/03/03 04:19:34;;;;;;;62.30;25.25;;;;;;;22.59;12.38;98318.50;5082098;28;20032;-80
2022/03/03 04:22:00;;;;;;;60.65;23.98;;;;;;;22.59;12.53;98318.50;5078454;28;20046;-80
2022/03/03 04:24:26;;;;;;;66.15;25.05;;;;;;;22.50;12.40;98315.41;5081504;28;20421;-80
2022/03/03 04:26:53;;;;;;;57.03;24.63;;;;;;;22.21;12.62;98302.19;5075040;28;20036;-80
2022/03/03 04:29:19;;;;;;;61.58;24.05;;;;;;;22.12;12.81;98297.09;5080787;28;20489;-80
2022/03/03 04:31:45;;;;;;;56.85;24.00;;;;;;;22.24;12.81;98292.97;5078852;28;20035;-80
2022/03/03 04:34:12;;;;;;;53.55;22.33;;;;;;;22.24;12.72;98299.31;5064215;28;20144;-80
2022/03/03 04:36:38;;;;;;;61.67;23.85;;;;;;;22.13;12.82;98286.66;5075494;28;20132;-80
2022/03/03 04:39:04;;;;;;;62.17;23.70;;;;;;;21.90;12.88;98287.31;5078995;28;20104;-80
2022/03/03 04:41:30;;;;;;;58.55;23.95;;;;;;;21.69;12.91;98285.47;5078132;28;20043;-80
2022/03/03 04:43:56;;;;;;;60.45;22.25;;;;;;;21.56;13.09;98278.81;5078784;28;20028;-80
2022/03/03 04:46:22;;;;;;;55.33;22.60;;;;;;;21.07;13.53;98285.59;5080405;28;20801;-80
2022/03/03 04:48:48;;;;;;;55.05;19.05;;;;;;;20.52;13.92;98277.06;5076454;28;20036;-80
2022/03/03 04:51:14;;;;;;;59.67;23.33;;;;;;;20.32;14.18;98277.97;5083065;28;21007;-80
2022/03/03 04:53:40;;;;;;;65.70;25.70;;;;;;;20.50;14.24;98282.25;5084358;28;20069;-80
2022/03/03 04:56:07;;;;;;;67.80;27.60;;;;;;;20.48;14.09;98276.31;5081822;28;20016;-80
2022/03/03 04:58:33;;;;;;;63.47;27.30;;;;;;;20.50;13.88;98278.69;5085290;28;20068;-80
2022/03/03 05:00:59;;;;;;;87.30;33.58;;;;;;;20.65;13.96;98274.63;5084401;28;20127;-80
2022/03/03 05:03:25;;;;;;;96.20;34.90;;;;;;;20.65;13.76;98272.63;5082756;28;20039;-79
2022/03/03 05:05:51;;;;;;;117.13;41.88;;;;;;;20.86;13.79;98270.94;5085505;28;20108;-79
2022/03/03 05:08:17;;;;;;;90.88;33.67;;;;;;;21.04;13.57;98249.28;5088914;28;20535;-80
2022/03/03 05:10:43;;;;;;;136.55;48.45;;;;;;;21.38;13.30;98264.19;5083689;28;20115;-79
2022/03/03 05:13:09;;;;;;;115.18;40.10;;;;;;;21.61;13.01;98264.38;5091544;28;20077;-80
2022/03/03 05:15:36;;;;;;;119.65;42.55;;;;;;;21.70;12.91;98266.72;5091209;28;20086;-80
2022/03/03 05:18:02;;;;;;;115.35;41.85;;;;;;;21.61;12.92;98263.63;5085951;28;20032;-80
2022/03/03 05:20:28;;;;;;;103.35;36.40;;;;;;;21.21;13.17;98263.13;5067707;28;20032;-79
2022/03/03 05:22:54;;;;;;;75.13;29.15;;;;;;;20.81;13.47;98257.41;5084663;28;20036;-81
2022/03/03 05:25:20;;;;;;;71.88;27.10;;;;;;;20.48;13.65;98264.34;5088333;28;20109;-80
2022/03/03 05:27:46;;;;;;;103.05;36.70;;;;;;;20.58;13.59;98266.31;5080213;28;20032;-80
2022/03/03 05:30:13;;;;;;;107.68;36.45;;;;;;;20.79;13.31;98268.97;5088622;28;20526;-80
2022/03/03 05:32:39;;;;;;;123.15;44.00;;;;;;;20.88;13.08;98260.94;5083864;28;20040;-80
2022/03/03 05:35:06;;;;;;;106.97;37.95;;;;;;;20.79;13.33;98266.19;5077865;28;20075;-80
2022/03/03 05:37:32;;;;;;;99.13;34.83;;;;;;;20.32;13.72;98266.81;5079750;28;20036;-80
2022/03/03 05:39:59;;;;;;;82.75;30.42;;;;;;;19.91;13.88;98270.06;5062780;28;20411;-81
2022/03/03 05:42:25;;;;;;;81.70;32.40;;;;;;;19.02;14.59;98267.72;5068326;28;20032;-80
2022/03/03 05:44:52;;;;;;;85.47;31.88;;;;;;;19.23;14.52;98259.34;5088130;28;20035;-82
2022/03/03 05:47:19;;;;;;;88.57;34.03;;;;;;;18.85;14.78;98268.47;5086839;28;20531;-80
2022/03/03 05:49:50;;;;;;;84.00;32.55;;;;;;;18.96;14.68;98275.63;5088271;28;20064;-80
2022/03/03 05:52:17;;;;;;;;;;;;;;;18.90;14.87;98270.88;5083878;28;20028;-80
2022/03/03 05:54:43;;;;;;;77.28;30.05;;;;;;;19.02;14.59;98273.28;5084903;28;19959;-79
2022/03/03 05:57:42;;;;;;;88.50;31.88;;;;;;;19.18;14.55;98271.69;5087535;28;20024;-80
2022/03/03 06:00:13;;;;;;;93.25;35.78;;;;;;;19.25;14.43;98276.47;5074716;28;20086;-81
2022/03/03 06:02:52;;;;;;;72.85;30.48;;;;;;;19.17;14.46;98269.28;5084492;28;20486;-81
2022/03/03 06:05:24;;;;;;;83.57;30.65;;;;;;;18.94;14.61;98280.00;5086208;28;20032;-80
2022/03/03 06:07:53;;;;;;;80.28;31.02;;;;;;;18.86;14.83;98272.81;5070287;28;20131;-80
2022/03/03 06:10:23;;;;;;;79.18;31.05;;;;;;;19.31;14.45;98272.91;5085546;28;20032;-80
2022/03/03 06:12:55;;;;;;;87.13;33.63;;;;;;;19.94;13.92;98257.34;5082715;28;20040;-79
2022/03/03 06:15:23;;;;;;;83.20;30.73;;;;;;;20.53;13.45;98266.72;5087277;28;20392;-79
2022/03/03 06:17:50;;;;;;;66.30;28.00;;;;;;;21.06;13.00;98266.44;5070048;28;22686;-79
2022/03/03 06:20:18;;;;;;;73.45;28.67;;;;;;;21.53;12.54;98270.47;5085715;28;20107;-79
2022/03/03 06:22:44;;;;;;;77.57;30.88;;;;;;;21.52;12.65;98277.28;5083522;28;20685;-79
2022/03/03 06:25:11;;;;;;;79.85;31.33;;;;;;;21.35;12.86;98276.22;5067080;28;20516;-79
2022/03/03 06:27:37;;;;;;;88.90;32.05;;;;;;;20.40;13.50;98273.94;5086097;28;20029;-80
2022/03/03 06:30:05;;;;;;;89.18;36.80;;;;;;;20.02;14.01;98276.41;5090301;28;20024;-81
2022/03/03 06:32:31;;;;;;;83.97;34.13;;;;;;;20.15;14.08;98278.78;5084484;28;20040;-79
2022/03/03 06:34:57;;;;;;;90.55;33.22;;;;;;;20.70;13.68;98274.19;5086799;28;20542;-79
2022/03/03 06:37:23;;;;;;;97.82;38.42;;;;;;;21.11;13.33;98268.78;5081199;28;20029;-80
2022/03/03 06:39:50;;;;;;;75.53;33.47;;;;;;;21.59;12.93;98261.22;5085098;28;20042;-79
2022/03/03 06:42:16;;;;;;;80.22;30.40;;;;;;;21.88;12.58;98261.78;5083555;28;20119;-79
2022/03/03 06:44:42;;;;;;;70.15;29.05;;;;;;;22.18;12.51;98261.03;5081221;28;20063;-80
2022/03/03 06:47:08;;;;;;;82.70;32.60;;;;;;;22.40;12.36;98259.59;5084068;28;20058;-79
2022/03/03 06:49:34;;;;;;;89.88;31.77;;;;;;;22.55;12.32;98269.38;5089388;28;20123;-80
2022/03/03 06:52:03;;;;;;;81.43;30.27;;;;;;;22.68;12.20;98268.44;5081644;28;20032;-80
2022/03/03 06:54:32;;;;;;;80.90;29.67;;;;;;;22.61;12.35;98278.94;5084133;28;20516;-80
2022/03/03 06:56:58;;;;;;;68.90;29.75;;;;;;;22.34;12.50;98280.84;5080605;28;20536;-80
2022/03/03 06:59:32;;;;;;;71.47;27.02;;;;;;;22.18;12.57;98275.03;5070986;28;20304;-80
2022/03/03 07:01:59;;;;;;;69.40;26.23;;;;;;;22.25;12.45;98281.34;5090461;28;20488;-80
2022/03/03 07:04:29;;;;;;;140.20;42.88;;;;;;;22.60;12.22;98271.72;5089824;28;20509;-80
2022/03/03 07:06:56;;;;;;;75.97;28.27;;;;;;;22.75;12.28;98275.97;5081648;28;20027;-80
2022/03/03 07:09:22;;;;;;;70.95;27.38;;;;;;;23.10;12.27;98275.47;5080311;28;20468;-80
2022/03/03 07:11:49;;;;;;;112.35;36.45;;;;;;;23.42;12.02;98263.78;5084358;28;20039;-80
2022/03/03 07:14:16;;;;;;;82.65;29.77;;;;;;;23.70;11.84;98282.13;5076415;28;20032;-79
2022/03/03 07:16:45;;;;;;;81.35;30.42;;;;;;;23.86;11.73;98280.25;5083340;28;20020;-80
2022/03/03 07:19:26;;;;;;;82.18;31.05;;;;;;;23.93;11.70;98273.69;5081317;28;20081;-80
2022/03/03 07:22:18;;;;;;;88.53;32.15;;;;;;;23.93;11.78;98263.28;5081933;28;20116;-80
2022/03/03 07:25:00;;;;;;;88.72;36.22;;;;;;;23.90;11.71;98264.13;5096786;28;20046;-80
2022/03/03 07:27:27;;;;;;;77.60;28.20;;;;;;;23.96;11.79;98270.84;5085209;28;20396;-80
2022/03/03 07:29:58;;;;;;;83.60;32.38;;;;;;;24.01;11.55;98263.94;5083396;28;20432;-80
2022/03/03 07:32:42;;;;;;;77.78;29.23;;;;;;;24.00;11.71;98265.97;5082060;28;20046;-80
2022/03/03 07:35:14;;;;;;;75.60;29.55;;;;;;;23.67;11.89;98266.94;5083864;28;20027;-80
2022/03/03 07:38:05;;;;;;;71.72;26.90;;;;;;;23.26;12.10;98261.63;5080601;28;20035;-80
2022/03/03 07:40:32;;;;;;;64.93;26.40;;;;;;;23.17;12.03;98268.97;5088351;28;20034;-80
2022/03/03 07:43:00;;;;;;;79.38;32.67;;;;;;;21.84;12.83;98278.56;5081013;28;20043;-80
2022/03/03 07:45:26;;;;;;;72.10;29.75;;;;;;;21.54;13.19;98264.44;5087788;28;20511;-80
2022/03/03 07:47:55;;;;;;;83.65;33.08;;;;;;;21.48;13.05;98263.31;5083344;28;20115;-80
2022/03/03 07:50:22;;;;;;;84.03;30.83;;;;;;;22.03;12.92;98271.63;5083667;28;20572;-80
2022/03/03 07:52:52;;;;;;;71.30;28.95;;;;;;;22.51;12.66;98271.44;5078007;28;20512;-80
2022/03/03 07:55:19;;;;;;;103.18;37.13;;;;;;;22.49;12.49;98262.69;5085707;28;20029;-80
2022/03/03 07:57:59;;;;;;;80.32;31.02;;;;;;;22.76;12.44;98260.75;5082118;28;20047;-80
2022/03/03 08:00:29;;;;;;;91.55;34.08;;;;;;;23.16;12.21;98261.75;5087088;28;20031;-80
2022/03/03 08:02:58;;;;;;;100.50;34.45;;;;;;;23.38;12.10;98262.25;5081850;28;20032;-80
2022/03/03 08:05:29;;;;;;;92.15;36.05;;;;;;;23.51;12.07;98260.44;5087384;28;20108;-80
2022/03/03 08:07:56;;;;;;;93.20;34.50;;;;;;;23.44;11.95;98261.34;5073251;28;20471;-80
2022/03/03 08:10:27;;;;;;;78.80;30.33;;;;;;;23.45;12.38;98264.94;5083405;28;20040;-80
2022/03/03 08:12:56;;;;;;;73.88;30.35;;;;;;;23.17;12.26;98260.56;5081766;28;20047;-80
2022/03/03 08:15:22;;;;;;;72.20;27.75;;;;;;;23.25;12.09;98262.81;5084623;28;20038;-80
2022/03/03 08:17:53;;;;;;;60.47;24.85;;;;;;;22.63;12.82;98268.94;5083230;28;20412;-80
2022/03/03 08:20:20;;;;;;;71.22;28.30;;;;;;;22.45;13.00;98273.13;5084297;28;20025;-80
2022/03/03 08:22:46;;;;;;;94.85;35.25;;;;;;;23.05;12.66;98252.75;5083805;28;20036;-80
2022/03/03 08:25:13;;;;;;;69.50;29.60;;;;;;;23.28;12.10;98250.78;5070798;28;20086;-81
2022/03/03 08:27:40;;;;;;;84.22;31.08;;;;;;;23.44;12.29;98252.94;5088722;28;20039;-80
2022/03/03 08:30:08;;;;;;;96.05;34.03;;;;;;;23.79;12.14;98241.09;5083364;28;20016;-80
2022/03/03 08:32:41;;;;;;;86.93;31.85;;;;;;;24.13;12.20;98246.53;5082261;28;20050;-80
2022/03/03 08:35:21;;;;;;;69.57;27.63;;;;;;;24.09;12.06;98240.16;5090873;28;20023;-80
2022/03/03 08:38:05;;;;;;;72.20;27.13;;;;;;;24.42;12.19;98243.91;5089876;28;20054;-81
2022/03/03 08:40:32;;;;;;;65.38;28.20;;;;;;;24.57;11.62;98234.00;5086536;28;20365;-81
2022/03/03 08:43:04;;;;;;;59.20;25.10;;;;;;;24.95;11.81;98237.97;5090749;28;20032;-81
2022/03/03 08:45:33;;;;;;;59.42;26.17;;;;;;;24.35;11.88;98242.06;5084034;28;20427;-81
2022/03/03 08:48:06;;;;;;;60.50;27.65;;;;;;;23.87;12.29;98233.38;5083756;28;20036;-81
2022/03/03 08:50:35;;;;;;;63.40;28.35;;;;;;;22.99;12.84;98241.22;5087952;28;20497;-81
2022/03/03 08:53:03;;;;;;;52.80;24.27;;;;;;;23.05;12.71;98239.53;5089365;28;20131;-81
2022/03/03 08:55:30;;;;;;;55.03;25.05;;;;;;;22.46;13.02;98236.31;5087461;28;20040;-80
2022/03/03 08:57:58;;;;;;;56.75;25.55;;;;;;;23.01;12.69;98233.16;5084839;28;20036;-81
2022/03/03 09:00:25;;;;;;;52.25;23.67;;;;;;;22.72;12.93;98231.22;5087581;28;20069;-80
2022/03/03 09:02:52;;;;;;;68.88;27.48;;;;;;;22.57;12.92;98224.97;5072093;28;20035;-81
2022/03/03 09:05:19;;;;;;;63.15;23.90;;;;;;;23.03;13.07;98222.38;5083223;28;20401;-81
2022/03/03 09:07:46;;;;;;;60.38;25.05;;;;;;;23.63;12.69;98220.59;5084649;28;20042;-81
2022/03/03 09:10:13;;;;;;;64.18;25.25;;;;;;;24.20;12.37;98221.09;5088750;28;20032;-80
2022/03/03 09:12:40;;;;;;;54.65;25.38;;;;;;;24.00;12.15;98215.47;5083534;28;20182;-80
2022/03/03 09:15:08;;;;;;;58.65;25.73;;;;;;;24.39;12.21;98208.28;5081523;28;20061;-81
2022/03/03 09:17:34;;;;;;;50.55;23.52;;;;;;;23.87;12.18;98208.13;5090179;28;20024;-80
2022/03/03 09:20:02;;;;;;;42.80;19.08;;;;;;;23.30;12.60;98214.72;5078840;28;20040;-80
2022/03/03 09:22:29;;;;;;;44.13;18.05;;;;;;;22.37;12.86;98219.25;5082352;28;20552;-80
2022/03/03 09:24:55;;;;;;;36.15;16.67;;;;;;;21.10;13.54;98217.75;5084807;28;20040;-81
2022/03/03 09:27:22;;;;;;;37.30;17.55;;;;;;;21.31;13.53;98225.94;5089775;28;20029;-80
2022/03/03 09:29:49;;;;;;;44.58;18.77;;;;;;;21.90;12.97;98217.44;5086366;28;20036;-80
2022/03/03 09:32:15;;;;;;;36.08;17.65;;;;;;;21.06;13.32;98216.19;5086066;28;20489;-80
2022/03/03 09:34:44;;;;;;;32.60;14.55;;;;;;;21.92;13.09;98207.41;5086565;28;20115;-81
2022/03/03 09:37:11;;;;;;;40.38;17.67;;;;;;;22.27;12.80;98206.19;5084581;28;20034;-82
2022/03/03 09:39:37;;;;;;;35.47;16.30;;;;;;;20.11;14.17;98211.91;5087752;28;20063;-82
2022/03/03 09:42:04;;;;;;;32.47;15.93;;;;;;;20.60;14.13;98210.88;5091745;28;20050;-82
2022/03/03 09:44:30;;;;;;;41.72;17.33;;;;;;;21.07;13.92;98212.19;5052276;28;20042;-82
2022/03/03 09:46:56;;;;;;;36.42;18.35;;;;;;;21.74;13.19;98211.59;5069905;28;20021;-82
2022/03/03 09:49:23;;;;;;;43.25;19.30;;;;;;;22.48;13.08;98205.13;5092161;28;20057;-82
2022/03/03 09:51:50;;;;;;;44.38;20.02;;;;;;;22.39;13.30;98208.44;5092229;28;20032;-82
2022/03/03 09:54:16;;;;;;;46.35;21.33;;;;;;;23.38;12.45;98206.22;5082099;28;20967;-82
2022/03/03 09:56:43;;;;;;;46.90;21.55;;;;;;;23.38;12.03;98198.63;5084305;28;20029;-83
2022/03/03 09:59:09;;;;;;;35.47;17.52;;;;;;;22.21;12.77;98207.09;5084241;28;20063;-80
2022/03/03 10:01:36;;;;;;;37.33;17.95;;;;;;;22.13;12.53;98205.56;5075554;28;20408;-80
2022/03/03 10:04:21;;;;;;;28.25;14.02;;;;;;;22.97;12.33;98193.25;5084134;28;20557;-80
2022/03/03 10:06:49;;;;;;;32.33;15.63;;;;;;;24.18;12.21;98198.31;5083723;28;20116;-80
2022/03/03 10:09:16;;;;;;;31.00;15.48;;;;;;;23.48;11.69;98203.22;5084504;28;20028;-81
2022/03/03 10:11:48;;;;;;;31.45;15.52;;;;;;;22.60;12.05;98188.59;5083453;28;20078;-81
2022/03/03 10:14:24;;;;;;;32.08;15.15;;;;;;;22.49;12.03;98199.13;5085027;28;20054;-81
2022/03/03 10:16:51;;;;;;;30.55;14.32;;;;;;;22.31;12.50;98192.94;5088011;28;20063;-81
2022/03/03 10:19:17;;;;;;;40.10;21.90;;;;;;;22.75;11.97;98188.41;5074407;28;20059;-81
2022/03/03 10:21:44;;;;;;;26.92;13.93;;;;;;;21.26;13.15;98197.69;5088696;28;20040;-81
2022/03/03 10:24:24;;;;;;;27.45;15.57;;;;;;;21.48;12.98;98196.28;5080000;28;20028;-81
2022/03/03 10:27:07;;;;;;;30.75;13.80;;;;;;;23.35;12.03;98191.06;5085702;28;20071;-81
2022/03/03 10:29:35;;;;;;;23.35;12.48;;;;;;;23.73;11.82;98186.75;5081063;28;20105;-81
2022/03/03 10:32:02;;;;;;;23.30;12.48;;;;;;;24.39;11.43;98177.41;5090289;28;20028;-81
2022/03/03 10:34:31;;;;;;;25.35;12.50;;;;;;;25.36;10.84;98175.56;5073450;28;20510;-81
2022/03/03 10:37:09;;;;;;;24.33;11.93;;;;;;;25.07;10.82;98175.47;5085033;28;20493;-82
2022/03/03 10:39:42;;;;;;;25.75;12.95;;;;;;;24.29;10.93;98170.03;5087659;28;20121;-81
2022/03/03 10:42:19;;;;;;;16.45;8.90;;;;;;;22.22;13.20;98178.69;5083380;28;20032;-81
2022/03/03 10:45:06;;;;;;;25.60;14.90;;;;;;;20.85;12.63;98180.81;5083332;28;20051;-81
2022/03/03 10:47:33;;;;;;;25.95;13.40;;;;;;;21.15;12.87;98181.00;5071767;28;20043;-81
2022/03/03 10:50:01;;;;;;;20.38;10.77;;;;;;;22.86;12.13;98173.03;5088557;28;20035;-81
2022/03/03 10:52:31;;;;;;;27.00;14.27;;;;;;;24.19;11.16;98171.03;5085230;28;20028;-81
2022/03/03 10:55:07;;;;;;;32.90;17.55;;;;;;;22.35;11.64;98181.72;5087039;28;20027;-81
2022/03/03 10:57:58;;;;;;;29.42;14.07;;;;;;;21.46;12.63;98189.50;5083186;28;20020;-81
2022/03/03 11:00:26;;;;;;;;;;;;;;;22.01;12.36;98176.16;5082446;28;20106;-81
2022/03/03 11:02:57;;;;;;;29.17;14.43;;;;;;;22.69;11.92;98165.69;5065137;28;19912;-81
2022/03/03 11:05:27;;;;;;;26.10;13.48;;;;;;;20.65;14.35;98179.78;5084407;28;20037;-81
2022/03/03 11:07:56;;;;;;;30.52;15.95;;;;;;;21.27;13.07;98174.94;5069955;28;20559;-81
2022/03/03 11:10:25;;;;;;;25.77;14.35;;;;;;;22.12;12.61;98159.25;5089038;28;20035;-81
2022/03/03 11:12:51;;;;;;;39.80;18.45;;;;;;;23.64;11.67;98149.28;5071555;28;20096;-81
2022/03/03 11:15:23;;;;;;;37.35;17.52;;;;;;;22.20;12.88;98155.16;5086986;28;20054;-80
2022/03/03 11:17:50;;;;;;;32.20;16.75;;;;;;;21.15;13.48;98164.25;5086985;28;20040;-81
2022/03/03 11:20:18;;;;;;;36.78;19.75;;;;;;;19.27;14.89;98157.19;5087633;28;20030;-81